createdAt,value
2023-05-09T00:01:33.430Z,79.26
2023-05-09T00:03:59.910Z,79.25
2023-05-09T00:06:27.415Z,79.29
2023-05-09T00:08:53.820Z,78.75
2023-05-09T00:11:20.381Z,78.75
2023-05-09T00:13:46.853Z,79.14
2023-05-09T00:16:13.252Z,78.75
2023-05-09T00:18:39.675Z,78.69
2023-05-09T00:21:06.046Z,79.63
2023-05-09T00:23:32.751Z,79.50
2023-05-09T00:25:59.119Z,79.28
2023-05-09T00:28:25.479Z,79.43
2023-05-09T00:30:51.920Z,78.83
2023-05-09T00:33:18.268Z,79.47
2023-05-09T00:35:44.614Z,79.81
2023-05-09T00:38:11.376Z,79.30
2023-05-09T00:40:37.771Z,78.98
2023-05-09T00:43:04.110Z,79.16
2023-05-09T00:45:30.810Z,78.86
2023-05-09T00:47:57.200Z,78.75
2023-05-09T00:50:23.566Z,79.44
2023-05-09T00:52:50.151Z,79.78
2023-05-09T00:55:17.773Z,79.92
2023-05-09T00:57:44.503Z,80.76
2023-05-09T01:00:12.457Z,80.10
2023-05-09T01:02:38.891Z,79.95
2023-05-09T01:05:05.281Z,79.35
2023-05-09T01:07:36.107Z,79.67
2023-05-09T01:10:04.940Z,80.12
2023-05-09T01:12:31.721Z,79.54
2023-05-09T01:14:59.184Z,79.23
2023-05-09T01:17:25.671Z,79.56
2023-05-09T01:19:54.416Z,78.83
2023-05-09T01:22:20.773Z,79.77
2023-05-09T01:24:47.102Z,79.77
2023-05-09T01:27:13.434Z,79.91
2023-05-09T01:29:39.785Z,80.14
2023-05-09T01:32:06.453Z,79.66
2023-05-09T01:34:35.011Z,79.41
2023-05-09T01:37:01.572Z,79.90
2023-05-09T01:39:28.178Z,80.15
2023-05-09T01:41:54.799Z,80.27
2023-05-09T01:44:22.158Z,80.13
2023-05-09T01:46:48.763Z,80.59
2023-05-09T01:49:15.168Z,81.02
2023-05-09T01:51:43.777Z,80.42
2023-05-09T01:54:10.485Z,80.95
2023-05-09T01:56:37.871Z,79.89
2023-05-09T01:59:04.801Z,80.32
2023-05-09T02:01:33.413Z,80.60
2023-05-09T02:04:00.018Z,80.35
2023-05-09T02:06:27.173Z,80.35
2023-05-09T02:08:56.631Z,80.45
2023-05-09T02:11:23.181Z,80.20
2023-05-09T02:13:51.746Z,80.11
2023-05-09T02:16:19.472Z,80.21
2023-05-09T02:18:46.910Z,80.06
2023-05-09T02:21:13.284Z,80.03
2023-05-09T02:23:39.746Z,79.73
2023-05-09T02:26:06.375Z,79.63
2023-05-09T02:28:33.115Z,80.01
2023-05-09T02:31:01.902Z,79.99
2023-05-09T02:33:28.684Z,80.26
2023-05-09T02:35:55.604Z,79.92
2023-05-09T02:38:22.331Z,79.85
2023-05-09T02:40:49.878Z,79.47
2023-05-09T02:43:18.045Z,79.37
2023-05-09T02:45:44.962Z,79.23
2023-05-09T02:48:11.354Z,79.32
2023-05-09T02:50:45.384Z,79.42
2023-05-09T02:53:11.728Z,80.20
2023-05-09T02:55:39.123Z,80.75
2023-05-09T02:58:14.209Z,81.04
2023-05-09T03:00:43.771Z,80.71
2023-05-09T03:03:12.423Z,80.55
2023-05-09T03:05:38.919Z,80.70
2023-05-09T03:08:05.325Z,80.73
2023-05-09T03:10:31.661Z,80.92
2023-05-09T03:12:58.139Z,81.03
2023-05-09T03:15:26.698Z,81.03
2023-05-09T03:17:53.113Z,81.28
2023-05-09T03:20:19.679Z,81.19
2023-05-09T03:22:46.366Z,80.88
2023-05-09T03:25:13.022Z,81.24
2023-05-09T03:27:39.616Z,81.21
2023-05-09T03:30:05.992Z,80.93
2023-05-09T03:32:33.383Z,80.82
2023-05-09T03:34:59.958Z,80.62
2023-05-09T03:37:27.439Z,80.31
2023-05-09T03:39:53.795Z,80.09
2023-05-09T03:42:20.516Z,79.82
2023-05-09T03:44:49.894Z,80.10
2023-05-09T03:47:16.231Z,80.60
2023-05-09T03:49:42.649Z,80.68
2023-05-09T03:52:09.118Z,80.19
2023-05-09T03:54:35.498Z,80.76
2023-05-09T03:57:01.838Z,80.55
2023-05-09T03:59:28.300Z,80.29
2023-05-09T04:01:55.148Z,80.03
2023-05-09T04:04:22.203Z,79.54
2023-05-09T04:06:49.237Z,79.81
2023-05-09T04:09:18.239Z,80.01
2023-05-09T04:11:45.687Z,80.15
2023-05-09T04:14:12.080Z,79.71
2023-05-09T04:16:40.822Z,79.42
2023-05-09T04:19:07.279Z,79.36
2023-05-09T04:21:33.654Z,79.55
2023-05-09T04:24:02.155Z,79.93
2023-05-09T04:26:31.174Z,79.61
2023-05-09T04:28:57.862Z,79.55
2023-05-09T04:31:24.374Z,79.48
2023-05-09T04:33:50.751Z,80.12
2023-05-09T04:36:17.121Z,80.56
2023-05-09T04:38:46.129Z,80.17
2023-05-09T04:41:12.923Z,80.87
2023-05-09T04:43:41.708Z,81.03
2023-05-09T04:46:08.291Z,80.93
2023-05-09T04:48:34.856Z,80.00
2023-05-09T04:51:01.258Z,79.84
2023-05-09T04:53:27.675Z,80.16
2023-05-09T04:55:54.072Z,79.95
2023-05-09T04:58:20.467Z,80.04
2023-05-09T05:00:52.125Z,80.07
2023-05-09T05:03:18.496Z,80.76
2023-05-09T05:05:45.044Z,80.80
2023-05-09T05:08:11.608Z,80.63
2023-05-09T05:10:38.340Z,80.76
2023-05-09T05:13:04.841Z,80.40
2023-05-09T05:15:31.347Z,80.19
2023-05-09T05:17:58.721Z,79.77
2023-05-09T05:20:25.263Z,79.78
2023-05-09T05:22:51.645Z,79.31
2023-05-09T05:25:18.035Z,79.27
2023-05-09T05:27:44.600Z,79.49
2023-05-09T05:30:11.126Z,78.56
2023-05-09T05:32:37.522Z,78.44
2023-05-09T05:35:04.080Z,78.52
2023-05-09T05:37:30.595Z,78.43
2023-05-09T05:39:57.238Z,78.78
2023-05-09T05:42:24.254Z,77.73
2023-05-09T05:44:50.814Z,76.55
2023-05-09T05:47:17.193Z,77.26
2023-05-09T05:49:46.276Z,77.96
2023-05-09T05:52:12.919Z,77.77
2023-05-09T05:54:39.330Z,77.29
2023-05-09T05:57:05.892Z,76.20
2023-05-09T05:59:32.265Z,76.16
2023-05-09T06:01:58.645Z,75.86
2023-05-09T06:04:27.203Z,74.94
2023-05-09T06:06:53.716Z,76.09
2023-05-09T06:09:22.535Z,75.99
2023-05-09T06:11:48.973Z,76.10
2023-05-09T06:14:15.734Z,75.04
2023-05-09T06:16:42.317Z,75.60
2023-05-09T06:19:09.021Z,75.75
2023-05-09T06:21:35.420Z,75.44
2023-05-09T06:24:08.493Z,75.18
2023-05-09T06:26:40.227Z,75.35
2023-05-09T06:29:08.655Z,75.52
2023-05-09T06:31:35.097Z,74.69
2023-05-09T06:34:05.986Z,74.50
2023-05-09T06:36:32.415Z,73.98
2023-05-09T06:38:59.203Z,72.15
2023-05-09T06:41:25.584Z,71.27
2023-05-09T06:43:51.972Z,72.98
2023-05-09T06:46:19.617Z,72.14
2023-05-09T06:48:46.433Z,72.75
2023-05-09T06:51:14.476Z,72.58
2023-05-09T06:53:41.881Z,72.88
2023-05-09T06:56:08.453Z,72.97
2023-05-09T06:58:35.170Z,71.95
2023-05-09T07:01:01.527Z,71.85
2023-05-09T07:03:30.947Z,71.93
2023-05-09T07:05:59.590Z,71.36
2023-05-09T07:08:26.261Z,71.59
2023-05-09T07:10:53.702Z,71.89
2023-05-09T07:13:22.462Z,72.28
2023-05-09T07:15:49.250Z,71.86
2023-05-09T07:18:18.479Z,71.40
2023-05-09T07:20:45.380Z,72.33
2023-05-09T07:23:14.054Z,72.24
2023-05-09T07:25:40.419Z,72.07
2023-05-09T07:28:06.807Z,71.20
2023-05-09T07:30:33.404Z,71.16
2023-05-09T07:32:59.894Z,71.12
2023-05-09T07:35:28.792Z,70.44
2023-05-09T07:37:55.297Z,72.03
2023-05-09T07:40:21.692Z,71.05
2023-05-09T07:42:52.805Z,72.60
2023-05-09T07:45:21.226Z,71.25
2023-05-09T07:47:56.781Z,70.32
2023-05-09T07:50:23.321Z,70.30
2023-05-09T07:52:57.473Z,69.04
2023-05-09T07:55:24.206Z,68.14
2023-05-09T07:57:52.666Z,68.20
2023-05-09T08:00:19.160Z,68.66
2023-05-09T08:02:45.836Z,70.23
2023-05-09T08:05:12.683Z,72.50
2023-05-09T08:07:42.308Z,70.96
2023-05-09T08:10:08.938Z,69.62
2023-05-09T08:12:36.323Z,68.29
2023-05-09T08:15:02.714Z,67.86
2023-05-09T08:17:30.483Z,67.65
2023-05-09T08:19:59.156Z,65.88
2023-05-09T08:22:28.163Z,65.71
2023-05-09T08:24:54.834Z,64.88
2023-05-09T08:27:21.180Z,62.86
2023-05-09T08:29:47.546Z,65.06
2023-05-09T08:32:14.074Z,63.59
2023-05-09T08:34:40.797Z,62.61
2023-05-09T08:37:07.205Z,63.73
2023-05-09T08:39:34.612Z,62.47
2023-05-09T08:42:01.021Z,65.05
2023-05-09T08:44:34.822Z,64.86
2023-05-09T08:47:01.353Z,64.91
2023-05-09T08:49:27.868Z,65.51
2023-05-09T08:51:54.554Z,63.83
2023-05-09T08:54:22.770Z,64.51
2023-05-09T08:56:49.316Z,63.53
2023-05-09T08:59:16.316Z,59.85
2023-05-09T09:01:43.342Z,63.99
2023-05-09T09:04:11.051Z,60.61
2023-05-09T09:06:37.420Z,63.28
2023-05-09T09:09:03.759Z,59.76
2023-05-09T09:11:31.156Z,58.60
2023-05-09T09:13:57.709Z,61.76
2023-05-09T09:16:24.102Z,65.47
2023-05-09T09:18:50.511Z,65.95
2023-05-09T09:21:16.929Z,66.58
2023-05-09T09:23:44.452Z,65.07
2023-05-09T09:26:10.840Z,65.33
2023-05-09T09:28:37.527Z,64.39
2023-05-09T09:31:03.963Z,64.00
2023-05-09T09:33:30.650Z,61.10
2023-05-09T09:35:57.151Z,60.36
2023-05-09T09:38:23.818Z,60.69
2023-05-09T09:40:52.309Z,60.71
2023-05-09T09:43:19.004Z,63.11
2023-05-09T09:45:45.611Z,57.03
2023-05-09T09:48:12.313Z,55.91
2023-05-09T09:50:38.945Z,56.29
2023-05-09T09:53:05.331Z,60.48
2023-05-09T09:55:34.751Z,59.74
2023-05-09T09:58:04.099Z,58.69
2023-05-09T10:00:31.506Z,59.60
2023-05-09T10:02:58.009Z,61.57
2023-05-09T10:05:24.398Z,64.40
2023-05-09T10:07:50.845Z,64.50
2023-05-09T10:10:17.864Z,64.94
2023-05-09T10:12:45.706Z,65.19
2023-05-09T10:15:12.098Z,65.42
2023-05-09T10:17:39.591Z,64.80
2023-05-09T10:20:06.185Z,62.76
2023-05-09T10:22:35.498Z,64.72
2023-05-09T10:25:01.833Z,64.90
2023-05-09T10:27:28.238Z,63.31
2023-05-09T10:29:54.724Z,64.87
2023-05-09T10:32:23.509Z,64.97
2023-05-09T10:34:52.390Z,62.81
2023-05-09T10:37:18.970Z,63.39
2023-05-09T10:39:46.268Z,62.44
2023-05-09T10:44:53.374Z,61.43
2023-05-09T10:47:20.390Z,61.97
2023-05-09T10:52:28.959Z,59.97
2023-05-09T10:54:55.385Z,60.36
2023-05-09T10:57:24.151Z,62.89
2023-05-09T10:59:50.856Z,63.31
2023-05-09T11:02:20.413Z,64.19
2023-05-09T11:04:46.809Z,64.66
2023-05-09T11:07:13.155Z,65.39
2023-05-09T11:09:42.954Z,63.82
2023-05-09T11:12:09.731Z,64.81
2023-05-09T11:14:36.209Z,63.66
2023-05-09T11:17:05.934Z,61.92
2023-05-09T11:19:33.392Z,59.99
2023-05-09T11:22:02.596Z,59.34
2023-05-09T11:24:29.099Z,58.92
2023-05-09T11:26:55.732Z,58.50
2023-05-09T11:29:22.426Z,58.62
2023-05-09T11:31:54.761Z,58.57
2023-05-09T11:34:21.308Z,60.09
2023-05-09T11:36:47.950Z,60.27
2023-05-09T11:39:14.357Z,59.98
2023-05-09T11:41:42.845Z,59.90
2023-05-09T11:44:09.261Z,59.61
2023-05-09T11:46:38.048Z,59.72
2023-05-09T11:49:04.431Z,60.46
2023-05-09T11:51:35.963Z,58.61
2023-05-09T11:54:02.554Z,60.47
2023-05-09T11:56:31.297Z,59.78
2023-05-09T11:58:58.998Z,62.17
2023-05-09T12:01:25.396Z,59.45
2023-05-09T12:03:51.846Z,62.62
2023-05-09T12:06:20.618Z,61.22
2023-05-09T12:08:48.335Z,60.52
2023-05-09T12:11:15.853Z,62.03
2023-05-09T12:13:42.590Z,58.62
2023-05-09T12:16:09.477Z,59.90
2023-05-09T12:18:39.225Z,60.72
2023-05-09T12:21:06.350Z,59.62
2023-05-09T12:23:32.941Z,62.62
2023-05-09T12:26:02.194Z,63.38
2023-05-09T12:28:28.576Z,62.17
2023-05-09T12:30:55.062Z,61.67
2023-05-09T12:33:21.436Z,64.32
2023-05-09T12:35:48.409Z,64.21
2023-05-09T12:38:15.133Z,66.67
2023-05-09T12:40:42.133Z,65.62
2023-05-09T12:43:08.804Z,65.31
2023-05-09T12:45:35.237Z,67.07
2023-05-09T12:48:01.717Z,66.40
2023-05-09T12:50:28.327Z,66.63
2023-05-09T12:53:02.635Z,65.71
2023-05-09T12:55:33.137Z,64.39
2023-05-09T12:57:59.552Z,67.29
2023-05-09T13:00:25.982Z,62.63
2023-05-09T13:02:54.905Z,65.18
2023-05-09T13:05:21.595Z,65.06
2023-05-09T13:07:47.985Z,63.55
2023-05-09T13:10:14.454Z,63.97
2023-05-09T13:12:41.012Z,64.13
2023-05-09T13:15:09.615Z,63.60
2023-05-09T13:17:35.986Z,63.25
2023-05-09T13:20:02.346Z,64.85
2023-05-09T13:22:30.999Z,64.73
2023-05-09T13:24:57.386Z,63.77
2023-05-09T13:27:26.142Z,66.04
2023-05-09T13:29:53.630Z,66.78
2023-05-09T13:32:21.375Z,64.92
2023-05-09T13:34:51.956Z,66.31
2023-05-09T13:37:18.418Z,66.33
2023-05-09T13:39:45.341Z,67.38
2023-05-09T13:42:11.768Z,65.82
2023-05-09T13:44:38.502Z,68.35
2023-05-09T13:47:05.097Z,67.54
2023-05-09T13:49:31.543Z,68.64
2023-05-09T13:51:59.605Z,68.72
2023-05-09T13:54:27.038Z,70.04
2023-05-09T13:56:53.878Z,70.73
2023-05-09T13:59:21.647Z,71.02
2023-05-09T14:01:48.092Z,71.32
2023-05-09T14:04:15.064Z,71.71
2023-05-09T14:06:41.673Z,71.46
2023-05-09T14:09:08.677Z,72.69
2023-05-09T14:11:35.286Z,71.89
2023-05-09T14:14:01.778Z,70.73
2023-05-09T14:16:29.316Z,69.50
2023-05-09T14:18:55.956Z,70.69
2023-05-09T14:21:22.355Z,70.28
2023-05-09T14:23:48.698Z,70.84
2023-05-09T14:26:15.042Z,69.05
2023-05-09T14:28:41.492Z,68.68
2023-05-09T14:31:08.144Z,69.40
2023-05-09T14:33:36.850Z,70.71
2023-05-09T14:36:03.341Z,71.58
2023-05-09T14:38:30.720Z,71.19
2023-05-09T14:40:57.495Z,70.51
2023-05-09T14:43:27.632Z,70.94
2023-05-09T14:45:54.585Z,72.41
2023-05-09T14:48:28.392Z,72.64
2023-05-09T14:50:55.000Z,73.71
2023-05-09T14:53:21.359Z,72.64
2023-05-09T14:55:48.062Z,72.88
2023-05-09T14:58:14.524Z,73.75
2023-05-09T15:00:41.496Z,71.20
2023-05-09T15:03:07.991Z,73.34
2023-05-09T15:05:36.608Z,72.71
2023-05-09T15:08:02.999Z,73.62
2023-05-09T15:10:29.368Z,74.56
2023-05-09T15:12:56.090Z,72.13
2023-05-09T15:15:22.485Z,72.57
2023-05-09T15:17:48.952Z,72.66
2023-05-09T15:20:15.942Z,73.37
2023-05-09T15:22:43.132Z,73.66
2023-05-09T15:25:09.561Z,74.20
2023-05-09T15:27:36.082Z,73.92
2023-05-09T15:30:02.818Z,73.91
2023-05-09T15:32:29.178Z,74.85
2023-05-09T15:34:55.635Z,75.76
2023-05-09T15:37:24.602Z,77.54
2023-05-09T15:39:51.163Z,76.98
2023-05-09T15:42:17.675Z,77.57
2023-05-09T15:44:46.231Z,77.51
2023-05-09T15:47:12.604Z,76.36
2023-05-09T15:49:38.956Z,76.95
2023-05-09T15:52:05.743Z,76.97
2023-05-09T15:54:34.489Z,77.09
2023-05-09T15:57:00.981Z,76.55
2023-05-09T15:59:28.341Z,76.77
2023-05-09T16:01:54.865Z,76.01
2023-05-09T16:04:22.308Z,76.38
2023-05-09T16:06:48.680Z,75.52
2023-05-09T16:09:15.073Z,75.05
2023-05-09T16:11:41.495Z,75.24
2023-05-09T16:14:09.961Z,75.21
2023-05-09T16:16:40.741Z,75.36
2023-05-09T16:19:09.534Z,74.42
2023-05-09T16:21:39.040Z,75.67
2023-05-09T16:24:05.500Z,76.17
2023-05-09T16:26:31.876Z,75.12
2023-05-09T16:28:58.255Z,75.55
2023-05-09T16:31:25.010Z,75.50
2023-05-09T16:33:51.402Z,75.49
2023-05-09T16:36:17.850Z,75.87
2023-05-09T16:38:44.365Z,76.86
2023-05-09T16:41:10.910Z,75.97
2023-05-09T16:43:37.899Z,77.07
2023-05-09T16:46:04.516Z,76.15
2023-05-09T16:48:30.951Z,76.75
2023-05-09T16:50:57.311Z,75.93
2023-05-09T16:53:24.489Z,76.02
2023-05-09T16:55:52.343Z,76.37
2023-05-09T16:58:19.958Z,75.97
2023-05-09T17:00:46.587Z,75.62
2023-05-09T17:03:12.955Z,76.19
2023-05-09T17:05:39.677Z,75.78
2023-05-09T17:08:06.390Z,75.99
2023-05-09T17:10:33.177Z,76.13
2023-05-09T17:13:00.637Z,76.60
2023-05-09T17:15:27.062Z,77.39
2023-05-09T17:17:53.737Z,76.88
2023-05-09T17:20:22.596Z,78.39
2023-05-09T17:22:49.464Z,77.15
2023-05-09T17:25:16.007Z,77.52
2023-05-09T17:27:43.383Z,77.86
2023-05-09T17:30:09.723Z,78.76
2023-05-09T17:32:36.117Z,77.83
2023-05-09T17:35:02.699Z,77.93
2023-05-09T17:37:29.046Z,77.93
2023-05-09T17:39:55.496Z,77.17
2023-05-09T17:42:21.857Z,78.09
2023-05-09T17:44:53.386Z,78.45
2023-05-09T17:47:19.741Z,78.57
2023-05-09T17:49:54.022Z,78.14
2023-05-09T17:52:20.933Z,78.78
2023-05-09T17:54:47.535Z,78.27
2023-05-09T17:57:16.251Z,78.43
2023-05-09T17:59:42.628Z,79.29
2023-05-09T18:02:11.415Z,78.60
2023-05-09T18:04:38.188Z,78.50
2023-05-09T18:07:05.606Z,78.02
2023-05-09T18:09:32.111Z,78.80
2023-05-09T18:12:01.545Z,77.97
2023-05-09T18:14:27.896Z,78.49
2023-05-09T18:16:54.548Z,77.94
2023-05-09T18:19:20.954Z,78.29
2023-05-09T18:21:47.301Z,78.33
2023-05-09T18:24:16.906Z,78.00
2023-05-09T18:26:43.526Z,78.49
2023-05-09T18:29:12.902Z,78.54
2023-05-09T18:31:40.405Z,78.69
2023-05-09T18:34:06.988Z,78.88
2023-05-09T18:36:35.779Z,79.05
2023-05-09T18:39:04.934Z,79.59
2023-05-09T18:41:31.280Z,79.39
2023-05-09T18:43:57.718Z,79.09
2023-05-09T18:46:25.521Z,79.04
2023-05-09T18:48:52.290Z,79.46
2023-05-09T18:51:18.634Z,79.25
2023-05-09T18:53:48.290Z,78.60
2023-05-09T18:56:16.170Z,79.76
2023-05-09T18:58:44.589Z,79.29
2023-05-09T19:01:13.370Z,79.53
2023-05-09T19:03:49.516Z,78.96
2023-05-09T19:06:15.920Z,79.24
2023-05-09T19:08:43.553Z,79.30
2023-05-09T19:11:09.917Z,80.02
2023-05-09T19:13:36.342Z,79.31
2023-05-09T19:16:02.776Z,79.69
2023-05-09T19:18:33.288Z,79.59
2023-05-09T19:20:59.640Z,79.50
2023-05-09T19:23:25.940Z,78.40
2023-05-09T19:25:52.267Z,78.65
2023-05-09T19:28:18.640Z,78.12
2023-05-09T19:30:46.072Z,79.00
2023-05-09T19:33:17.157Z,78.18
2023-05-09T19:35:45.012Z,79.26
2023-05-09T19:38:18.728Z,79.40
2023-05-09T19:40:45.234Z,78.38
2023-05-09T19:43:12.243Z,78.76
2023-05-09T19:45:39.740Z,77.66
2023-05-09T19:48:06.566Z,78.07
2023-05-09T19:50:33.090Z,77.87
2023-05-09T19:52:59.850Z,78.25
2023-05-09T19:55:26.183Z,77.42
2023-05-09T19:57:52.522Z,77.84
2023-05-09T20:00:20.070Z,78.55
2023-05-09T20:02:46.485Z,77.99
2023-05-09T20:05:14.543Z,78.18
2023-05-09T20:07:40.834Z,77.87
2023-05-09T20:10:07.112Z,78.81
2023-05-09T20:12:33.408Z,78.82
2023-05-09T20:14:59.705Z,78.70
2023-05-09T20:17:25.989Z,78.24
2023-05-09T20:19:52.330Z,78.06
2023-05-09T20:22:18.617Z,77.69
2023-05-09T20:24:44.923Z,77.24
2023-05-09T20:27:11.846Z,77.47
2023-05-09T20:29:38.231Z,76.81
2023-05-09T20:32:09.193Z,77.92
2023-05-09T20:34:35.702Z,78.02
2023-05-09T20:37:02.226Z,78.26
2023-05-09T20:39:28.522Z,78.48
2023-05-09T20:41:55.297Z,78.32
2023-05-09T20:44:25.676Z,78.73
2023-05-09T20:46:51.983Z,78.92
2023-05-09T20:49:18.259Z,78.94
2023-05-09T20:51:44.565Z,78.71
2023-05-09T20:54:10.845Z,78.69
2023-05-09T20:56:37.139Z,79.07
2023-05-09T20:59:05.829Z,78.66
2023-05-09T21:01:32.662Z,78.72
2023-05-09T21:03:58.998Z,78.55
2023-05-09T21:06:25.585Z,78.58
2023-05-09T21:08:51.883Z,78.44
2023-05-09T21:11:19.202Z,77.93
2023-05-09T21:13:45.484Z,78.67
2023-05-09T21:16:13.840Z,78.01
2023-05-09T21:18:40.133Z,78.67
2023-05-09T21:21:06.404Z,78.56
2023-05-09T21:23:32.707Z,78.26
2023-05-09T21:25:59.488Z,77.76
2023-05-09T21:28:25.775Z,77.97
2023-05-09T21:30:53.147Z,77.99
2023-05-09T21:33:20.471Z,77.85
2023-05-09T21:35:46.765Z,78.05
2023-05-09T21:38:13.040Z,77.47
2023-05-09T21:40:41.658Z,78.05
2023-05-09T21:43:07.944Z,77.40
2023-05-09T21:45:34.238Z,77.20
2023-05-09T21:48:00.884Z,77.87
2023-05-09T21:50:28.219Z,78.54
2023-05-09T21:52:54.545Z,79.70
2023-05-09T21:55:20.844Z,79.82
2023-05-09T21:57:48.221Z,79.49
2023-05-09T22:00:14.711Z,78.98
2023-05-09T22:02:41.490Z,79.33
2023-05-09T22:05:07.848Z,80.01
2023-05-09T22:07:34.129Z,80.91
2023-05-09T22:10:02.754Z,81.65
2023-05-09T22:12:30.078Z,82.25
2023-05-09T22:14:57.004Z,82.34
2023-05-09T22:17:23.410Z,80.90
2023-05-09T22:19:52.543Z,82.03
2023-05-09T22:22:19.144Z,81.79
2023-05-09T22:24:45.437Z,80.92
2023-05-09T22:27:12.744Z,80.23
2023-05-09T22:29:39.252Z,80.35
2023-05-09T22:32:06.609Z,79.89
2023-05-09T22:34:34.409Z,79.23
2023-05-09T22:37:01.739Z,79.68
2023-05-09T22:39:28.376Z,79.04
2023-05-09T22:41:55.012Z,78.99
2023-05-09T22:44:21.561Z,78.92
2023-05-09T22:46:48.317Z,78.03
2023-05-09T22:49:14.787Z,77.96
2023-05-09T22:51:42.234Z,77.57
2023-05-09T22:54:08.844Z,78.28
2023-05-09T22:56:35.579Z,78.56
2023-05-09T22:59:01.995Z,78.35
2023-05-09T23:01:28.458Z,77.43
2023-05-09T23:03:54.859Z,77.59
2023-05-09T23:06:21.425Z,77.00
2023-05-09T23:08:49.920Z,77.25
2023-05-09T23:11:17.866Z,76.77
2023-05-09T23:13:44.469Z,76.83
2023-05-09T23:16:10.944Z,77.02
2023-05-09T23:18:37.684Z,77.03
2023-05-09T23:21:04.017Z,76.25
2023-05-09T23:23:30.345Z,75.87
2023-05-09T23:25:56.707Z,76.65
2023-05-09T23:28:23.042Z,76.91
2023-05-09T23:30:49.627Z,76.14
2023-05-09T23:33:16.983Z,76.96
2023-05-09T23:35:43.375Z,77.99
2023-05-09T23:38:09.756Z,76.53
2023-05-09T23:40:36.137Z,76.50
2023-05-09T23:43:02.509Z,76.17
2023-05-09T23:45:28.853Z,76.01
2023-05-09T23:47:55.261Z,76.39
2023-05-09T23:50:23.624Z,76.99
2023-05-09T23:52:49.985Z,77.70
2023-05-09T23:55:17.380Z,77.82
2023-05-09T23:57:44.644Z,77.94
